Time;durP1;ratioP1;P1;durP2;ratioP2;P2;SDS_P1;SDS_P2;PMS_P1;PMS_P2;Temp;Humidity;BMP_temperature;BMP_pressure;BME280_temperature;BME280_humidity;BME280_pressure;Samples;Min_cycle;Max_cycle;Signal;HPM_P1;HPM_P2
2022/06/01 00:01:09;;;;;;;3.00;2.80;;;;;;;10.45;62.01;100574.69;5034928;28;20031;-19
2022/06/01 00:03:37;;;;;;;2.80;2.60;;;;;;;10.42;61.89;100571.16;5035277;28;20025;-19
2022/06/01 00:06:03;;;;;;;3.85;3.55;;;;;;;10.40;61.84;100572.03;5038591;28;20023;-20
2022/06/01 00:08:29;;;;;;;3.00;2.80;;;;;;;10.36;61.70;100569.44;5040015;28;20029;-20
2022/06/01 00:10:54;;;;;;;3.25;3.05;;;;;;;10.34;61.81;100560.69;5036136;28;20464;-20
2022/06/01 00:13:19;;;;;;;2.90;2.70;;;;;;;10.31;61.72;100558.09;5020787;28;20716;-20
2022/06/01 00:15:46;;;;;;;2.90;2.70;;;;;;;10.31;62.05;100566.88;5038667;28;20441;-20
2022/06/01 00:18:11;;;;;;;3.70;3.40;;;;;;;10.26;61.81;100568.66;5032458;28;20453;-19
2022/06/01 00:20:37;;;;;;;3.55;3.28;;;;;;;10.25;62.25;100577.47;5036167;28;20484;-20
2022/06/01 00:23:03;;;;;;;3.38;3.17;;;;;;;10.21;61.96;100589.78;5035317;28;20476;-19
2022/06/01 00:25:28;;;;;;;3.08;2.88;;;;;;;10.17;62.05;100584.56;5037139;28;20035;-20
2022/06/01 00:27:54;;;;;;;3.22;3.03;;;;;;;10.13;62.18;100592.50;5035424;28;20035;-19
2022/06/01 00:30:20;;;;;;;3.47;3.22;;;;;;;10.07;62.10;100587.28;5033475;28;20030;-20
2022/06/01 00:32:46;;;;;;;3.20;3.00;;;;;;;10.02;62.06;100570.63;5035549;28;20028;-20
2022/06/01 00:35:13;;;;;;;3.00;2.80;;;;;;;10.03;62.12;100576.78;5034454;28;20371;-19
2022/06/01 00:37:39;;;;;;;3.65;3.35;;;;;;;9.99;62.28;100573.28;5040283;28;20035;-20
2022/06/01 00:40:06;;;;;;;3.42;3.10;;;;;;;9.97;62.09;100583.84;5036210;28;20087;-19
2022/06/01 00:42:33;;;;;;;3.15;2.95;;;;;;;9.94;62.08;100572.47;5041721;28;20029;-19
2022/06/01 00:44:59;;;;;;;4.03;3.60;;;;;;;9.92;62.03;100579.50;5031823;28;20033;-19
2022/06/01 00:47:25;;;;;;;3.53;3.22;;;;;;;9.91;62.03;100588.28;5033861;28;20024;-19
2022/06/01 00:49:53;;;;;;;3.42;3.13;;;;;;;9.86;62.10;100585.69;5030954;28;20116;-20
2022/06/01 00:52:35;;;;;;;3.53;3.22;;;;;;;9.82;62.09;100584.84;5032827;28;20032;-19
2022/06/01 00:55:05;;;;;;;5.13;3.42;;;;;;;9.81;61.94;100593.66;5034553;28;20034;-20
2022/06/01 00:57:30;;;;;;;4.30;3.65;;;;;;;9.79;62.15;100597.16;5032595;28;20032;-19
2022/06/01 00:59:57;;;;;;;3.70;3.40;;;;;;;9.75;62.44;100589.28;5032142;28;20028;-19
2022/06/01 01:02:22;;;;;;;4.63;3.67;;;;;;;9.72;62.15;100593.69;5037544;28;20099;-19
2022/06/01 01:04:48;;;;;;;5.57;3.35;;;;;;;9.71;62.39;100602.50;5038445;28;20025;-20
2022/06/01 01:07:13;;;;;;;4.25;3.85;;;;;;;9.66;62.03;100593.72;5037339;28;20048;-19
2022/06/01 01:09:38;;;;;;;3.47;3.25;;;;;;;9.66;62.18;100599.00;5036637;28;20399;-20
2022/06/01 01:12:06;;;;;;;3.85;3.50;;;;;;;9.61;62.06;100592.00;5035215;28;20025;-19
2022/06/01 01:14:34;;;;;;;3.75;3.45;;;;;;;9.58;62.13;100593.78;5025970;28;20033;-20
2022/06/01 01:17:01;;;;;;;3.10;2.88;;;;;;;9.56;62.15;100595.53;5037160;28;20049;-19
2022/06/01 01:19:48;;;;;;;3.60;3.30;;;;;;;9.52;62.07;100586.81;5035266;28;20036;-19
2022/06/01 01:22:22;;;;;;;3.78;3.38;;;;;;;9.47;62.21;100578.91;5036563;28;20033;-19
2022/06/01 01:25:18;;;;;;;3.25;2.95;;;;;;;9.47;62.27;100578.91;5031945;28;20408;-19
2022/06/01 01:27:45;;;;;;;3.90;3.30;;;;;;;9.43;62.38;100573.69;5036665;28;20072;-19
2022/06/01 01:30:23;;;;;;;3.80;3.50;;;;;;;9.41;62.36;100570.19;5030724;28;20029;-20
2022/06/01 01:32:48;;;;;;;3.10;2.90;;;;;;;9.34;62.18;100572.84;5035413;28;20029;-19
2022/06/01 01:35:14;;;;;;;3.50;3.30;;;;;;;9.34;62.26;100579.91;5030502;28;20027;-19
2022/06/01 01:37:39;;;;;;;3.60;3.30;;;;;;;9.29;62.21;100574.66;5032463;28;20127;-19
2022/06/01 01:40:05;;;;;;;4.35;4.05;;;;;;;9.26;62.13;100579.91;5034930;28;20108;-19
2022/06/01 01:42:30;;;;;;;4.28;3.85;;;;;;;9.23;62.78;100587.81;5028704;28;20537;-19
2022/06/01 01:45:01;;;;;;;4.30;4.00;;;;;;;9.22;62.45;100584.34;5036965;28;20028;-19
2022/06/01 01:47:28;;;;;;;4.45;3.58;;;;;;;9.20;62.59;100595.72;5033515;28;20072;-19
2022/06/01 01:49:53;;;;;;;4.25;3.95;;;;;;;9.18;62.34;100595.75;5036096;28;20029;-19
2022/06/01 01:52:19;;;;;;;4.00;3.70;;;;;;;9.19;62.26;100589.59;5035601;28;20391;-19
2022/06/01 01:54:50;;;;;;;3.75;3.45;;;;;;;9.16;62.59;100594.00;5034638;28;20131;-20
2022/06/01 01:57:22;;;;;;;4.13;3.83;;;;;;;9.10;62.53;100587.88;5033588;28;20033;-20
2022/06/01 01:59:47;;;;;;;4.03;3.72;;;;;;;9.10;62.73;100593.16;5029535;28;20064;-19
2022/06/01 02:02:57;;;;;;;5.20;3.63;;;;;;;9.07;62.64;100590.53;5030802;28;20660;-19
2022/06/01 02:06:04;;;;;;;3.80;3.50;;;;;;;9.07;62.80;100587.91;4992204;28;20813;-20
2022/06/01 02:08:47;;;;;;;4.18;3.83;;;;;;;9.05;62.54;100578.25;4964829;28;20077;-19
2022/06/01 02:14:12;;;;;;;3.45;3.25;;;;;;;9.00;62.49;100573.00;5029940;28;20072;-20
2022/06/01 02:16:40;;;;;;;3.70;3.40;;;;;;;8.96;62.53;100559.00;5029907;28;20032;-18
2022/06/01 02:19:10;;;;;;;4.15;3.85;;;;;;;8.94;62.60;100562.53;5032274;28;20033;-19
2022/06/01 02:21:36;;;;;;;4.15;3.83;;;;;;;8.93;62.43;100561.66;5032394;28;20017;-19
2022/06/01 02:24:01;;;;;;;4.05;3.75;;;;;;;8.91;62.38;100562.53;5016075;28;20406;-19
2022/06/01 02:26:28;;;;;;;3.75;3.35;;;;;;;8.88;62.65;100557.28;5036421;28;20104;-20
2022/06/01 02:28:58;;;;;;;4.05;3.75;;;;;;;8.85;62.54;100553.81;5049095;28;20056;-20
2022/06/01 02:31:24;;;;;;;3.63;3.42;;;;;;;8.85;62.56;100552.91;5033208;28;20021;-19
2022/06/01 02:33:49;;;;;;;4.55;4.20;;;;;;;8.82;62.82;100564.34;5029673;28;20095;-19
2022/06/01 02:36:16;;;;;;;3.80;3.50;;;;;;;8.80;62.41;100573.97;5018831;28;20502;-19
2022/06/01 02:38:49;;;;;;;4.28;3.90;;;;;;;8.79;62.85;100571.34;5035042;28;20060;-20
2022/06/01 02:43:58;;;;;;;3.90;3.42;;;;;;;8.74;62.61;100563.50;5039956;28;20152;-19
2022/06/01 02:46:23;;;;;;;3.72;3.42;;;;;;;8.72;62.75;100554.72;5025169;28;20108;-20
2022/06/01 02:48:49;;;;;;;4.55;4.15;;;;;;;8.72;62.90;100549.47;5033665;28;20502;-19
2022/06/01 02:51:17;;;;;;;3.97;3.53;;;;;;;8.69;63.11;100555.59;5033396;28;20818;-20
2022/06/01 02:53:42;;;;;;;4.03;3.72;;;;;;;8.66;62.91;100562.63;5032465;28;20079;-20
2022/06/01 02:56:08;;;;;;;3.20;3.00;;;;;;;8.68;62.78;100563.50;5035828;28;20443;-18
2022/06/01 02:58:34;;;;;;;3.65;3.35;;;;;;;8.63;63.03;100560.88;5036264;28;20639;-19
2022/06/01 03:01:00;;;;;;;3.33;3.13;;;;;;;8.61;62.98;100565.28;5038098;28;20033;-19
2022/06/01 03:03:25;;;;;;;4.00;3.70;;;;;;;8.58;63.04;100560.03;5043136;28;20032;-19
2022/06/01 03:05:50;;;;;;;4.07;3.60;;;;;;;8.57;62.82;100564.41;5036908;28;20113;-20
2022/06/01 03:08:16;;;;;;;3.88;3.20;;;;;;;8.56;62.90;100562.66;5033801;28;20180;-19
2022/06/01 03:10:41;;;;;;;3.45;3.22;;;;;;;8.56;62.71;100551.25;5031262;28;20057;-19
2022/06/01 03:13:07;;;;;;;3.33;3.13;;;;;;;8.54;63.04;100563.53;5026172;28;20107;-19
2022/06/01 03:15:32;;;;;;;3.97;3.67;;;;;;;8.52;63.05;100568.75;5035244;28;20034;-19
2022/06/01 03:17:58;;;;;;;3.65;3.35;;;;;;;8.51;62.93;100558.25;5045954;28;20017;-19
2022/06/01 03:20:24;;;;;;;4.00;3.42;;;;;;;8.47;63.22;100553.00;5034412;28;20040;-19
2022/06/01 03:22:50;;;;;;;4.32;3.58;;;;;;;8.49;63.14;100553.00;5035519;28;20395;-19
2022/06/01 03:25:18;;;;;;;4.20;3.90;;;;;;;8.50;63.06;100567.88;5028649;28;20471;-19
2022/06/01 03:27:44;;;;;;;3.60;3.30;;;;;;;8.52;63.10;100570.50;5032838;28;20025;-20
2022/06/01 03:30:13;;;;;;;3.80;3.60;;;;;;;8.52;62.75;100553.00;5038336;28;20531;-20
2022/06/01 03:32:38;;;;;;;3.88;3.58;;;;;;;8.51;62.95;100548.63;5033925;28;20033;-20
2022/06/01 03:35:07;;;;;;;4.32;3.92;;;;;;;8.52;63.09;100539.84;5033374;28;20382;-19
2022/06/01 03:37:32;;;;;;;3.78;3.42;;;;;;;8.50;63.28;100549.47;5038114;28;20031;-20
2022/06/01 03:39:58;;;;;;;4.00;3.70;;;;;;;8.50;62.95;100541.59;5036260;28;20021;-18
2022/06/01 03:42:23;;;;;;;4.32;4.03;;;;;;;8.53;63.17;100557.41;5034514;28;20022;-19
2022/06/01 03:47:32;;;;;;;3.80;3.47;;;;;;;8.52;63.14;100558.25;5038148;28;20037;-18
2022/06/01 03:49:58;;;;;;;3.85;3.55;;;;;;;8.52;63.15;100566.13;5033745;28;20048;-19
2022/06/01 03:52:25;;;;;;;4.22;3.70;;;;;;;8.53;63.04;100573.16;5035968;28;20048;-20
2022/06/01 03:54:50;;;;;;;3.85;3.50;;;;;;;8.54;63.35;100574.91;5033333;28;20036;-19
2022/06/01 03:57:16;;;;;;;4.90;3.95;;;;;;;8.56;63.66;100578.44;5035885;28;20455;-20
2022/06/01 03:59:41;;;;;;;4.53;4.13;;;;;;;8.57;63.29;100580.16;5034694;28;20033;-19
2022/06/01 04:02:07;;;;;;;4.70;4.30;;;;;;;8.63;63.17;100578.44;5019003;28;20535;-20
2022/06/01 04:04:33;;;;;;;4.25;3.90;;;;;;;8.62;63.39;100590.69;5037734;28;20028;-19
2022/06/01 04:06:58;;;;;;;4.70;4.30;;;;;;;8.66;64.08;100615.19;5030184;28;20767;-20
2022/06/01 04:09:24;;;;;;;4.95;4.57;;;;;;;8.64;64.70;100628.34;5029243;28;20025;-20
2022/06/01 04:11:51;;;;;;;4.80;4.40;;;;;;;8.72;65.23;100612.56;5035893;28;20030;-20
2022/06/01 04:14:20;;;;;;;5.15;4.68;;;;;;;8.70;64.81;100630.09;5032304;28;20021;-19
2022/06/01 04:16:48;;;;;;;4.97;4.57;;;;;;;8.76;65.09;100610.78;5042277;28;20025;-20
2022/06/01 04:19:14;;;;;;;5.30;4.88;;;;;;;8.77;64.25;100608.16;5043374;28;20028;-19
2022/06/01 04:21:41;;;;;;;4.93;4.53;;;;;;;8.82;64.02;100608.16;5039901;28;20021;-19
2022/06/01 04:24:10;;;;;;;5.55;5.05;;;;;;;8.85;63.97;100608.16;5044980;28;20486;-19
2022/06/01 04:26:36;;;;;;;5.00;4.60;;;;;;;8.91;64.17;100602.88;5038997;28;20032;-19
2022/06/01 04:29:01;;;;;;;5.20;4.53;;;;;;;8.91;63.87;100578.31;5038132;28;20025;-20
2022/06/01 04:31:27;;;;;;;5.07;4.68;;;;;;;8.94;64.38;100599.38;5028495;28;20456;-19
2022/06/01 04:33:53;;;;;;;4.70;4.30;;;;;;;9.00;64.49;100596.69;5032996;28;20223;-20
2022/06/01 04:36:18;;;;;;;5.65;5.15;;;;;;;9.04;66.04;100595.78;5034773;28;20025;-19
2022/06/01 04:38:43;;;;;;;5.10;4.70;;;;;;;9.16;66.46;100594.00;5034847;28;20036;-20
2022/06/01 04:41:09;;;;;;;5.65;5.07;;;;;;;9.17;65.98;100587.88;5032789;28;20112;-19
2022/06/01 04:43:34;;;;;;;5.65;5.03;;;;;;;9.21;66.07;100586.97;5031284;28;20101;-20
2022/06/01 04:45:59;;;;;;;5.60;5.10;;;;;;;9.35;66.68;100585.16;5035545;28;20147;-19
2022/06/01 04:48:25;;;;;;;5.97;5.40;;;;;;;9.45;67.36;100595.63;5034159;28;20021;-20
2022/06/01 04:50:51;;;;;;;6.05;5.45;;;;;;;9.49;66.72;100592.97;5034646;28;20029;-20
2022/06/01 04:53:17;;;;;;;5.70;4.55;;;;;;;9.55;67.50;100597.31;5031366;28;20452;-19
2022/06/01 04:55:45;;;;;;;5.50;5.00;;;;;;;9.59;67.51;100593.78;5037239;28;20021;-20
2022/06/01 04:58:11;;;;;;;6.30;5.10;;;;;;;9.66;66.42;100591.09;5034848;28;20036;-19
2022/06/01 05:00:37;;;;;;;5.82;5.32;;;;;;;9.69;66.98;100583.19;5032005;28;20040;-19
2022/06/01 05:03:03;;;;;;;5.18;4.70;;;;;;;9.73;65.58;100590.16;5036470;28;20047;-19
2022/06/01 05:05:29;;;;;;;5.82;5.32;;;;;;;9.77;65.84;100584.00;5033165;28;20386;-19
2022/06/01 05:07:54;;;;;;;5.25;4.75;;;;;;;9.80;65.69;100562.91;5029782;28;20021;-19
2022/06/01 05:10:22;;;;;;;4.90;4.50;;;;;;;9.84;65.49;100562.00;5029601;28;20120;-18
2022/06/01 05:12:48;;;;;;;5.68;4.60;;;;;;;9.87;65.30;100564.59;5032435;28;20052;-19
2022/06/01 05:15:14;;;;;;;4.75;4.35;;;;;;;9.90;65.21;100566.34;5034535;28;20116;-19
2022/06/01 05:17:39;;;;;;;4.65;4.28;;;;;;;9.92;65.00;100558.41;5034239;28;20108;-19
2022/06/01 05:20:05;;;;;;;4.15;3.80;;;;;;;9.95;64.84;100547.88;5033256;28;20057;-19
2022/06/01 05:22:31;;;;;;;4.20;3.80;;;;;;;9.98;64.83;100532.88;5028941;28;20059;-19
2022/06/01 05:24:56;;;;;;;4.65;4.25;;;;;;;10.02;64.78;100517.94;5032417;28;20028;-20
2022/06/01 05:27:22;;;;;;;4.32;4.03;;;;;;;10.05;65.00;100525.81;5037193;28;20029;-19
2022/06/01 05:29:47;;;;;;;4.28;3.90;;;;;;;10.12;65.58;100556.50;5033712;28;20020;-20
2022/06/01 05:32:12;;;;;;;4.00;3.65;;;;;;;10.14;66.88;100580.22;5038156;28;20025;-19
2022/06/01 05:34:38;;;;;;;3.80;3.50;;;;;;;10.21;65.71;100588.94;5031733;28;20063;-20
2022/06/01 05:37:03;;;;;;;4.63;4.22;;;;;;;10.24;65.53;100591.53;5034351;28;20036;-18
2022/06/01 05:39:29;;;;;;;4.22;3.83;;;;;;;10.28;65.63;100582.72;5033886;28;20021;-20
2022/06/01 05:41:54;;;;;;;3.90;3.60;;;;;;;10.32;65.38;100584.44;5032343;28;20016;-19
2022/06/01 05:44:20;;;;;;;4.10;3.55;;;;;;;10.33;65.26;100575.63;5032193;28;20026;-20
2022/06/01 05:46:45;;;;;;;3.92;3.33;;;;;;;10.37;65.17;100576.50;5035437;28;20033;-19
2022/06/01 05:49:13;;;;;;;4.65;4.25;;;;;;;10.39;65.21;100570.31;5038210;28;20395;-19
2022/06/01 05:51:38;;;;;;;4.65;4.25;;;;;;;10.44;64.99;100562.31;5033312;28;20396;-19
2022/06/01 05:54:03;;;;;;;4.32;3.92;;;;;;;10.47;64.88;100562.34;5033178;28;20032;-19
2022/06/01 05:56:29;;;;;;;3.97;3.58;;;;;;;10.50;64.41;100561.41;5036091;28;20025;-19
2022/06/01 05:58:54;;;;;;;4.00;3.70;;;;;;;10.53;64.59;100566.66;5036690;28;20020;-20
2022/06/01 06:01:23;;;;;;;3.40;3.20;;;;;;;10.56;64.39;100587.75;5040026;28;20021;-20
2022/06/01 06:03:49;;;;;;;3.70;3.40;;;;;;;10.61;64.86;100601.75;5032746;28;20098;-19
2022/06/01 06:06:15;;;;;;;3.70;3.40;;;;;;;10.65;64.84;100598.22;5031202;28;20052;-20
2022/06/01 06:08:55;;;;;;;4.43;3.72;;;;;;;10.71;66.12;100593.75;5034742;28;20024;-19
2022/06/01 06:11:22;;;;;;;4.72;4.30;;;;;;;10.74;67.09;100607.75;5033606;28;20575;-19
2022/06/01 06:13:47;;;;;;;4.50;4.10;;;;;;;10.79;68.15;100610.34;5031578;28;20028;-19
2022/06/01 06:16:14;;;;;;;4.70;4.30;;;;;;;10.83;68.37;100627.91;5034571;28;20426;-19
2022/06/01 06:18:40;;;;;;;4.30;3.90;;;;;;;10.85;67.70;100617.34;5014003;28;20025;-18
2022/06/01 06:21:06;;;;;;;4.05;3.75;;;;;;;10.89;67.53;100616.41;5035161;28;20036;-20
2022/06/01 06:23:31;;;;;;;4.78;4.38;;;;;;;10.93;67.36;100622.53;5036421;28;20600;-19
2022/06/01 06:25:57;;;;;;;5.03;4.18;;;;;;;10.95;67.81;100616.34;5034651;28;20124;-20
2022/06/01 06:28:23;;;;;;;5.60;5.10;;;;;;;11.00;68.22;100622.44;5034178;28;20430;-19
2022/06/01 06:30:48;;;;;;;4.63;4.22;;;;;;;11.02;68.53;100632.97;5034584;28;20056;-19
2022/06/01 06:33:14;;;;;;;4.97;4.50;;;;;;;11.04;69.52;100647.91;5031723;28;20078;-19
2022/06/01 06:35:39;;;;;;;4.90;4.50;;;;;;;11.08;69.51;100648.75;5035009;28;20357;-20
2022/06/01 06:38:05;;;;;;;4.95;4.55;;;;;;;11.08;68.77;100646.09;5035713;28;20092;-19
2022/06/01 06:40:30;;;;;;;4.85;4.45;;;;;;;11.12;70.70;100644.28;5034719;28;20118;-19
2022/06/01 06:42:55;;;;;;;5.07;4.68;;;;;;;11.14;70.58;100653.94;5031541;28;20386;-19
2022/06/01 06:45:21;;;;;;;5.03;4.65;;;;;;;11.14;70.37;100643.38;5036817;28;20467;-19
2022/06/01 06:47:47;;;;;;;5.30;4.82;;;;;;;11.14;70.60;100643.38;5032948;28;20092;-19
2022/06/01 06:50:14;;;;;;;4.97;4.55;;;;;;;11.16;70.35;100641.63;5035372;28;20060;-19
2022/06/01 06:52:39;;;;;;;4.53;4.18;;;;;;;11.18;69.96;100635.44;5036124;28;20033;-19
2022/06/01 06:55:06;;;;;;;4.50;4.10;;;;;;;11.18;69.46;100636.31;5038555;28;20486;-18
2022/06/01 06:57:31;;;;;;;4.65;4.25;;;;;;;11.20;69.98;100641.56;5040525;28;20477;-19
2022/06/01 06:59:58;;;;;;;3.95;3.65;;;;;;;11.21;68.69;100644.19;5037062;28;20103;-20
2022/06/01 07:02:23;;;;;;;4.40;4.10;;;;;;;11.23;68.92;100645.03;5035592;28;20097;-19
2022/06/01 07:04:49;;;;;;;4.00;3.70;;;;;;;11.25;68.19;100639.75;5038777;28;20027;-19
2022/06/01 07:07:14;;;;;;;4.78;4.28;;;;;;;11.27;68.47;100638.81;5039687;28;20402;-20
2022/06/01 07:09:40;;;;;;;5.07;3.72;;;;;;;11.28;68.65;100640.56;5037048;28;20116;-20
2022/06/01 07:12:05;;;;;;;4.25;3.95;;;;;;;11.29;68.75;100644.09;5041516;28;20769;-19
2022/06/01 07:14:31;;;;;;;4.32;3.97;;;;;;;11.32;68.84;100646.69;5039461;28;20029;-19
2022/06/01 07:17:00;;;;;;;5.28;3.53;;;;;;;11.36;69.93;100647.53;5037135;28;20104;-19
2022/06/01 07:19:26;;;;;;;3.90;3.60;;;;;;;11.37;70.84;100647.50;5038186;28;20021;-19
2022/06/01 07:21:51;;;;;;;4.18;3.88;;;;;;;11.39;71.45;100642.19;5037251;28;20010;-20
2022/06/01 07:24:17;;;;;;;4.18;3.88;;;;;;;11.41;71.63;100637.78;5036872;28;20032;-20
2022/06/01 07:26:44;;;;;;;4.10;3.78;;;;;;;11.42;71.43;100640.41;5035557;28;20040;-19
2022/06/01 07:29:10;;;;;;;4.28;3.88;;;;;;;11.46;71.90;100640.34;5021678;28;20028;-19
2022/06/01 07:31:35;;;;;;;3.88;3.38;;;;;;;11.48;72.19;100634.19;5037454;28;20033;-19
2022/06/01 07:34:01;;;;;;;3.78;3.47;;;;;;;11.51;72.06;100635.91;5036207;28;20750;-19
2022/06/01 07:36:28;;;;;;;3.92;3.63;;;;;;;11.53;71.26;100642.00;5036687;28;20099;-19
2022/06/01 07:44:39;;;;;;;3.53;3.22;;;;;;;11.59;71.22;100622.56;5033110;28;20399;-19
2022/06/01 07:47:05;;;;;;;3.45;3.15;;;;;;;11.61;70.86;100624.28;5034814;28;20028;-20
2022/06/01 07:49:31;;;;;;;3.40;3.10;;;;;;;11.66;72.03;100625.13;5038197;28;20114;-19
2022/06/01 07:51:56;;;;;;;3.75;3.35;;;;;;;11.67;71.04;100624.22;5036303;28;20479;-20
2022/06/01 07:54:22;;;;;;;4.63;3.83;;;;;;;11.66;70.19;100625.13;5034774;28;20076;-19
2022/06/01 07:56:47;;;;;;;6.25;4.00;;;;;;;11.70;70.74;100631.22;5035149;28;20032;-19
2022/06/01 07:59:13;;;;;;;3.85;3.50;;;;;;;11.74;71.59;100643.47;5017518;28;20024;-18
2022/06/01 08:01:39;;;;;;;4.00;3.70;;;;;;;11.76;71.39;100640.81;5038798;28;20017;-20
2022/06/01 08:04:05;;;;;;;3.95;3.65;;;;;;;11.78;71.77;100639.03;5035318;28;20013;-20
2022/06/01 08:06:32;;;;;;;3.63;3.13;;;;;;;11.81;71.46;100634.56;5034746;28;20506;-19
2022/06/01 08:08:58;;;;;;;3.88;3.20;;;;;;;11.85;71.35;100642.47;5035016;28;20025;-19
2022/06/01 08:14:09;;;;;;;4.43;3.33;;;;;;;11.89;71.99;100646.81;5034975;28;20489;-19
2022/06/01 08:16:35;;;;;;;3.55;3.25;;;;;;;11.91;71.59;100645.88;5035711;28;20032;-20
2022/06/01 08:19:00;;;;;;;3.63;3.33;;;;;;;11.96;72.19;100652.84;5036887;28;20434;-19
2022/06/01 08:21:26;;;;;;;3.78;2.92;;;;;;;12.01;72.51;100646.59;5031879;28;20013;-19
2022/06/01 08:23:51;;;;;;;4.30;3.15;;;;;;;12.10;73.09;100656.19;5035166;28;20028;-18
2022/06/01 08:26:17;;;;;;;3.42;3.00;;;;;;;12.22;73.78;100651.63;5019420;28;20056;-19
2022/06/01 08:28:42;;;;;;;3.63;3.33;;;;;;;12.31;73.48;100644.41;5035064;28;20060;-19
2022/06/01 08:31:07;;;;;;;3.10;2.90;;;;;;;12.38;73.30;100642.53;5033751;28;20021;-19
2022/06/01 08:33:34;;;;;;;2.72;2.53;;;;;;;12.42;72.94;100628.38;5037526;28;20062;-19
2022/06/01 08:36:00;;;;;;;3.53;3.33;;;;;;;12.51;72.95;100629.09;5034435;28;20030;-19
2022/06/01 08:38:25;;;;;;;2.85;2.65;;;;;;;12.57;72.69;100629.84;5036546;28;20032;-19
2022/06/01 08:41:06;;;;;;;3.38;2.83;;;;;;;12.64;72.83;100627.09;5035229;28;20021;-19
2022/06/01 08:43:50;;;;;;;3.25;3.00;;;;;;;12.73;72.75;100620.78;5035113;28;20087;-18
2022/06/01 08:46:17;;;;;;;2.90;2.70;;;;;;;12.79;72.56;100623.28;5033559;28;20105;-19
2022/06/01 08:49:04;;;;;;;3.28;2.90;;;;;;;12.89;72.95;100622.22;5038219;28;20442;-19
2022/06/01 08:51:31;;;;;;;3.10;2.90;;;;;;;12.98;72.82;100612.34;5038184;28;20056;-20
2022/06/01 08:53:57;;;;;;;3.40;3.10;;;;;;;13.08;72.94;100625.34;5036662;28;20023;-18
2022/06/01 08:56:36;;;;;;;3.22;3.00;;;;;;;13.21;72.24;100619.81;5036176;28;20114;-19
2022/06/01 08:59:17;;;;;;;2.83;2.65;;;;;;;13.30;72.04;100634.63;5038580;28;20075;-18
2022/06/01 09:01:53;;;;;;;3.03;2.63;;;;;;;13.34;71.71;100631.88;5034664;28;20013;-20
2022/06/01 09:04:22;;;;;;;2.63;2.42;;;;;;;13.43;71.42;100628.16;5036274;28;20021;-19
2022/06/01 09:07:15;;;;;;;3.33;2.63;;;;;;;13.49;71.01;100624.53;5035098;28;20051;-19
2022/06/01 09:09:56;;;;;;;2.60;2.40;;;;;;;13.56;70.80;100620.84;5025214;28;20044;-19
2022/06/01 09:12:21;;;;;;;3.00;2.80;;;;;;;13.65;69.99;100625.09;5036548;28;20029;-20
2022/06/01 09:14:51;;;;;;;2.75;2.55;;;;;;;13.72;70.40;100625.81;5034542;28;20052;-19
2022/06/01 09:17:16;;;;;;;3.50;2.45;;;;;;;13.77;70.34;100629.22;5035493;28;20497;-19
2022/06/01 09:22:37;;;;;;;2.15;2.05;;;;;;;13.91;70.04;100625.38;5035008;28;20032;-19
2022/06/01 09:25:06;;;;;;;2.35;2.25;;;;;;;13.96;69.65;100612.88;5034274;28;20021;-19
2022/06/01 09:27:48;;;;;;;2.40;2.20;;;;;;;14.03;69.52;100613.59;5048878;28;20029;-19
2022/06/01 09:30:33;;;;;;;1.98;1.88;;;;;;;14.09;68.92;100624.06;5034570;28;20434;-19
2022/06/01 09:33:23;;;;;;;2.20;2.00;;;;;;;14.20;68.55;100621.13;5034011;28;20029;-18
2022/06/01 09:36:07;;;;;;;1.98;1.88;;;;;;;14.32;66.75;100626.13;5033260;28;20111;-20
2022/06/01 09:38:48;;;;;;;1.90;1.80;;;;;;;14.40;66.49;100620.63;5031769;28;20487;-19
2022/06/01 09:41:19;;;;;;;2.10;2.00;;;;;;;14.52;66.35;100615.91;5034103;28;20391;-20
2022/06/01 09:43:50;;;;;;;4.05;1.90;;;;;;;14.60;66.14;100614.78;5036493;28;20116;-19
2022/06/01 09:46:36;;;;;;;2.40;2.20;;;;;;;14.70;66.30;100617.19;5033772;28;20090;-19
2022/06/01 09:49:05;;;;;;;2.10;2.00;;;;;;;14.79;65.75;100619.63;5034441;28;20032;-19
2022/06/01 09:51:33;;;;;;;2.42;2.22;;;;;;;14.85;64.97;100619.47;5033759;28;20033;-20
2022/06/01 09:54:09;;;;;;;3.63;2.50;;;;;;;14.94;64.36;100617.47;5034649;28;20021;-19
2022/06/01 09:56:41;;;;;;;2.15;2.05;;;;;;;14.99;63.59;100624.41;5015127;28;20057;-19
2022/06/01 10:07:30;;;;;;;4.38;2.70;;;;;;;15.38;64.41;100611.78;5032760;28;20117;-19
2022/06/01 10:10:02;;;;;;;5.03;2.90;;;;;;;15.53;64.90;100605.09;5034333;28;20475;-19
2022/06/01 10:12:41;;;;;;;3.17;2.88;;;;;;;15.70;64.58;100611.69;5029814;28;20040;-19
2022/06/01 10:15:22;;;;;;;3.90;2.95;;;;;;;15.88;64.41;100600.44;5033422;28;20387;-19
2022/06/01 10:18:16;;;;;;;3.40;2.63;;;;;;;16.05;64.20;100607.06;5034015;28;20669;-20
2022/06/01 10:20:50;;;;;;;3.67;2.90;;;;;;;16.21;63.79;100604.72;5020689;28;20045;-19
2022/06/01 10:23:21;;;;;;;2.40;2.20;;;;;;;16.33;63.42;100611.44;5024003;28;20438;-20
2022/06/01 10:25:51;;;;;;;2.80;2.60;;;;;;;16.48;63.13;100601.19;5035133;28;20044;-19
2022/06/01 10:28:20;;;;;;;2.30;2.20;;;;;;;16.64;62.99;100598.84;5039536;28;20032;-17
2022/06/01 10:30:50;;;;;;;2.33;2.13;;;;;;;16.79;61.97;100595.63;5039622;28;20495;-19
2022/06/01 10:33:31;;;;;;;2.60;1.80;;;;;;;16.93;61.26;100597.78;5038102;28;20373;-19
2022/06/01 10:36:03;;;;;;;2.03;1.92;;;;;;;17.03;61.19;100590.31;5037907;28;20506;-19
2022/06/01 10:38:41;;;;;;;2.40;2.20;;;;;;;17.20;61.36;100593.31;5022309;28;20028;-19
2022/06/01 10:41:18;;;;;;;2.03;1.90;;;;;;;17.34;60.40;100588.28;5035359;28;20028;-19
2022/06/01 10:44:07;;;;;;;3.33;2.17;;;;;;;17.44;59.75;100594.16;5044511;28;20029;-19
2022/06/01 10:46:58;;;;;;;2.10;2.00;;;;;;;17.52;57.77;100600.06;5027763;28;20045;-18
2022/06/01 10:49:48;;;;;;;2.20;2.00;;;;;;;17.66;57.67;100598.63;5031041;28;20498;-19
2022/06/01 10:52:23;;;;;;;1.70;1.60;;;;;;;17.76;57.84;100586.66;5039777;28;20565;-19
2022/06/01 10:55:00;;;;;;;2.03;1.92;;;;;;;17.88;57.45;100589.75;5035215;28;20028;-19
2022/06/01 10:57:26;;;;;;;2.28;2.00;;;;;;;18.00;57.62;100591.06;5037467;28;20489;-19
2022/06/01 10:59:52;;;;;;;1.90;1.73;;;;;;;18.08;57.39;100595.13;5036810;28;20041;-19
2022/06/01 11:02:23;;;;;;;1.83;1.70;;;;;;;18.18;57.25;100600.97;5037116;28;20021;-19
2022/06/01 11:05:16;;;;;;;2.05;1.95;;;;;;;18.24;55.95;100599.84;5039662;28;20083;-19
2022/06/01 11:07:53;;;;;;;2.20;2.00;;;;;;;18.27;55.32;100594.38;5037097;28;20025;-19
2022/06/01 11:10:52;;;;;;;1.80;1.70;;;;;;;18.40;55.51;100588.50;5038570;28;20029;-19
2022/06/01 11:13:36;;;;;;;4.13;1.90;;;;;;;18.53;55.84;100589.72;5040207;28;20037;-19
2022/06/01 11:16:16;;;;;;;1.88;1.77;;;;;;;18.65;55.89;100587.44;5039815;28;20167;-19
2022/06/01 11:18:57;;;;;;;2.30;2.10;;;;;;;18.76;55.61;100587.81;5041781;28;20020;-19
2022/06/01 11:21:26;;;;;;;;;;;;;;;18.80;55.60;100581.41;5024145;28;20458;-20
2022/06/01 11:24:06;;;;;;;1.80;1.70;;;;;;;18.94;55.08;100595.94;5038110;28;19986;-19
2022/06/01 11:26:46;;;;;;;1.77;1.65;;;;;;;18.98;54.72;100584.19;5038378;28;20060;-19
2022/06/01 11:29:17;;;;;;;1.80;1.70;;;;;;;19.02;53.89;100584.88;5036185;28;20030;-19
2022/06/01 11:31:44;;;;;;;2.00;1.85;;;;;;;19.15;53.91;100582.56;5034610;28;20021;-19
2022/06/01 11:34:37;;;;;;;1.85;1.75;;;;;;;19.25;53.62;100580.31;5035081;28;20020;-19
2022/06/01 11:37:09;;;;;;;1.95;1.85;;;;;;;19.36;53.81;100584.22;5037253;28;20041;-19
2022/06/01 11:39:42;;;;;;;3.75;1.98;;;;;;;19.36;52.60;100584.22;5034094;28;20060;-19
2022/06/01 11:42:10;;;;;;;2.15;2.05;;;;;;;19.41;52.18;100583.13;5036465;28;20029;-19
2022/06/01 11:44:38;;;;;;;1.85;1.75;;;;;;;19.48;52.53;100577.41;5034800;28;20052;-20
2022/06/01 11:47:15;;;;;;;1.80;1.70;;;;;;;19.58;52.17;100587.66;5035967;28;20499;-19
2022/06/01 11:49:43;;;;;;;2.00;1.90;;;;;;;19.65;52.95;100578.41;5037389;28;20060;-20
2022/06/01 11:52:20;;;;;;;1.75;1.60;;;;;;;19.70;52.39;100584.38;5035599;28;20017;-20
2022/06/01 11:55:14;;;;;;;2.88;1.88;;;;;;;19.84;51.92;100583.69;5035260;28;20503;-20
2022/06/01 11:58:05;;;;;;;2.15;1.77;;;;;;;19.87;51.71;100583.56;5035147;28;20042;-19
2022/06/01 12:00:34;;;;;;;1.92;1.65;;;;;;;19.94;51.17;100583.25;5034753;28;20203;-20
2022/06/01 12:03:24;;;;;;;1.93;1.70;;;;;;;19.92;50.89;100577.97;5037727;28;20040;-19
2022/06/01 12:05:58;;;;;;;1.60;1.42;;;;;;;19.96;50.98;100576.88;5034322;28;20399;-20
2022/06/01 12:08:30;;;;;;;4.22;1.40;;;;;;;19.96;50.24;100592.06;5045829;28;20494;-19